Time;durP1;ratioP1;P1;durP2;ratioP2;P2;SDS_P1;SDS_P2;PMS_P1;PMS_P2;Temp;Humidity;BMP_temperature;BMP_pressure;BME280_temperature;BME280_humidity;BME280_pressure;Samples;Min_cycle;Max_cycle;Signal;HPM_P1;HPM_P2
2021/11/27 00:00:14;;;;;;;5.25;2.50;;;4.20;94.30;;;;;;4971707;28;20059;-78
2021/11/27 06:01:12;;;;;;;2.40;1.00;;;5.00;95.40;;;;;;5666566;23;20306;-76
2021/11/27 06:03:39;;;;;;;2.80;1.10;;;5.10;95.60;;;;;;4992017;28;20042;-75
2021/11/27 06:06:06;;;;;;;2.40;0.95;;;5.00;95.70;;;;;;4992350;28;20133;-77
2021/11/27 06:08:34;;;;;;;2.25;1.00;;;5.00;95.70;;;;;;4992213;28;20042;-77
2021/11/27 06:11:01;;;;;;;3.22;1.10;;;5.10;95.70;;;;;;4992374;28;20487;-75
2021/11/27 06:13:28;;;;;;;2.92;1.13;;;5.10;95.60;;;;;;4992398;28;20054;-76
2021/11/27 06:15:55;;;;;;;3.10;1.05;;;5.10;95.70;;;;;;4992717;28;20076;-75
2021/11/27 06:18:23;;;;;;;2.35;1.00;;;5.10;95.70;;;;;;4992142;28;20078;-78
2021/11/27 06:20:50;;;;;;;2.28;0.80;;;5.10;96.20;;;;;;4986955;28;20057;-77
2021/11/27 06:23:17;;;;;;;2.50;0.80;;;5.10;96.10;;;;;;4988962;28;20046;-77
2021/11/27 06:25:44;;;;;;;2.08;0.82;;;5.10;96.20;;;;;;4991673;28;20046;-77
2021/11/27 06:28:11;;;;;;;2.00;0.77;;;5.10;96.30;;;;;;4992001;28;20050;-78
2021/11/27 06:30:41;;;;;;;1.55;0.60;;;5.10;96.40;;;;;;4992053;28;20050;-76
2021/11/27 06:33:08;;;;;;;1.48;0.60;;;5.00;96.60;;;;;;4992346;28;20084;-78
2021/11/27 06:35:37;;;;;;;1.52;0.60;;;5.10;96.80;;;;;;4991879;28;20046;-76
2021/11/27 06:38:04;;;;;;;1.27;0.57;;;5.00;97.00;;;;;;4989826;28;20484;-79
2021/11/27 06:40:31;;;;;;;1.80;0.70;;;5.00;97.20;;;;;;4994679;28;20042;-78
2021/11/27 06:43:01;;;;;;;2.00;0.60;;;5.00;97.30;;;;;;4995056;28;20128;-79
2021/11/27 06:45:28;;;;;;;1.42;0.40;;;5.00;97.50;;;;;;4995902;28;20042;-78
2021/11/27 06:47:55;;;;;;;1.55;0.70;;;5.00;97.50;;;;;;4995685;28;20046;-79
2021/11/27 06:50:23;;;;;;;1.50;0.60;;;5.00;97.60;;;;;;4996003;28;20092;-77
2021/11/27 06:52:51;;;;;;;1.40;0.60;;;5.00;97.80;;;;;;4995374;28;20050;-77
2021/11/27 06:55:20;;;;;;;3.03;0.80;;;5.00;97.80;;;;;;4995461;28;20403;-77
2021/11/27 06:57:47;;;;;;;1.13;0.50;;;5.00;97.90;;;;;;4995267;28;20149;-76
2021/11/27 07:00:14;;;;;;;1.75;0.60;;;5.00;98.00;;;;;;4994377;28;20517;-77
2021/11/27 07:02:41;;;;;;;1.33;0.50;;;5.00;98.10;;;;;;4995137;28;20065;-79
2021/11/27 07:05:09;;;;;;;1.15;0.40;;;5.00;98.20;;;;;;4995246;28;20093;-77
2021/11/27 07:07:36;;;;;;;1.90;0.60;;;5.00;98.30;;;;;;4992562;28;20064;-77
2021/11/27 07:10:06;;;;;;;1.58;0.50;;;5.00;98.40;;;;;;4995453;28;20049;-78
2021/11/27 07:12:34;;;;;;;0.95;0.50;;;5.00;98.50;;;;;;4995056;28;20046;-80
2021/11/27 07:15:03;;;;;;;2.08;0.75;;;5.00;98.60;;;;;;4991762;28;20046;-76
2021/11/27 07:17:31;;;;;;;1.80;0.60;;;5.00;98.60;;;;;;4994818;28;20412;-77
2021/11/27 07:19:58;;;;;;;1.33;0.60;;;5.00;98.90;;;;;;4994751;28;20061;-78
2021/11/27 07:22:26;;;;;;;1.80;0.60;;;5.00;98.70;;;;;;4995285;28;20086;-79
2021/11/27 07:24:53;;;;;;;1.33;0.60;;;5.00;98.80;;;;;;4994825;28;20058;-80
2021/11/27 07:27:22;;;;;;;1.02;0.50;;;5.00;98.80;;;;;;4992414;28;20137;-75
2021/11/27 07:29:49;;;;;;;1.27;0.47;;;5.00;98.90;;;;;;4991682;28;20149;-78
2021/11/27 07:32:16;;;;;;;0.98;0.40;;;5.00;99.00;;;;;;4994765;28;20133;-78
2021/11/27 07:34:43;;;;;;;1.65;0.70;;;5.00;99.10;;;;;;4995214;28;20054;-78
2021/11/27 07:37:10;;;;;;;1.65;0.60;;;5.10;99.00;;;;;;4994707;28;20795;-78
2021/11/27 07:39:38;;;;;;;1.83;0.60;;;5.10;99.00;;;;;;4994899;28;20054;-78
2021/11/27 07:42:06;;;;;;;2.22;0.80;;;5.20;99.00;;;;;;4994746;28;20092;-78
2021/11/27 07:44:35;;;;;;;2.08;0.90;;;5.20;99.10;;;;;;4994799;28;20050;-76
2021/11/27 07:47:02;;;;;;;2.92;1.30;;;5.20;98.70;;;;;;4994196;28;20050;-77
2021/11/27 07:49:29;;;;;;;4.05;1.50;;;5.30;98.60;;;;;;4994648;28;20054;-77
2021/11/27 07:51:57;;;;;;;3.83;1.50;;;5.30;98.50;;;;;;4993223;28;20126;-79
2021/11/27 07:54:24;;;;;;;4.47;1.90;;;5.30;98.30;;;;;;4994906;28;20053;-76
2021/11/27 07:56:52;;;;;;;4.57;1.88;;;5.40;98.40;;;;;;4994599;28;20057;-78
2021/11/27 07:59:20;;;;;;;3.53;1.50;;;5.30;98.00;;;;;;4993797;28;20050;-75
2021/11/27 08:01:48;;;;;;;3.67;1.38;;;5.40;98.00;;;;;;4994571;28;20085;-75
2021/11/27 08:04:17;;;;;;;3.08;1.23;;;5.40;97.80;;;;;;4994382;28;20057;-75
2021/11/27 08:06:44;;;;;;;5.38;1.75;;;5.40;97.80;;;;;;4994111;28;20461;-75
2021/11/27 08:09:11;;;;;;;2.70;1.13;;;5.40;97.90;;;;;;4994175;28;20133;-75
2021/11/27 08:11:39;;;;;;;2.90;1.08;;;5.40;97.90;;;;;;4994442;28;20050;-75
2021/11/27 08:14:06;;;;;;;2.72;1.00;;;5.40;98.00;;;;;;4993749;28;20484;-78
2021/11/27 08:16:33;;;;;;;3.20;1.33;;;5.40;97.90;;;;;;4994232;28;20475;-79
2021/11/27 08:19:01;;;;;;;3.38;1.35;;;5.50;98.00;;;;;;4994230;28;20447;-75
2021/11/27 08:21:29;;;;;;;3.38;1.30;;;5.50;98.00;;;;;;4994374;28;20137;-75
2021/11/27 08:23:56;;;;;;;2.88;1.25;;;5.50;97.90;;;;;;4994288;28;20058;-78
2021/11/27 08:26:23;;;;;;;2.65;1.08;;;5.60;97.80;;;;;;4994089;28;20060;-81
2021/11/27 08:28:50;;;;;;;2.80;1.10;;;5.60;97.50;;;;;;4993996;28;20172;-78
2021/11/27 08:31:17;;;;;;;2.50;1.00;;;5.70;97.40;;;;;;4992944;28;20054;-79
2021/11/27 08:33:44;;;;;;;3.30;1.20;;;5.70;97.30;;;;;;4994056;28;20140;-78
2021/11/27 08:36:13;;;;;;;3.25;1.08;;;5.70;97.40;;;;;;4993885;28;20047;-77
2021/11/27 08:38:40;;;;;;;2.60;1.00;;;5.70;97.30;;;;;;4993963;28;20046;-79
2021/11/27 08:41:08;;;;;;;3.03;1.20;;;5.70;97.40;;;;;;4994756;28;20058;-77
2021/11/27 08:43:37;;;;;;;2.78;1.30;;;5.70;97.50;;;;;;4994005;28;20065;-78
2021/11/27 08:46:04;;;;;;;2.58;1.17;;;5.80;97.40;;;;;;4993871;28;20049;-79
2021/11/27 08:48:36;;;;;;;3.53;1.15;;;5.80;97.40;;;;;;4994187;28;20137;-78
2021/11/27 08:51:04;;;;;;;3.88;1.50;;;5.80;97.50;;;;;;4994208;28;20050;-77
2021/11/27 08:53:32;;;;;;;2.58;1.00;;;5.80;97.30;;;;;;4994598;28;20050;-76
2021/11/27 08:56:00;;;;;;;3.13;1.20;;;5.90;97.20;;;;;;4994578;28;20042;-77
2021/11/27 08:58:27;;;;;;;2.72;1.15;;;5.90;97.10;;;;;;4995050;28;20050;-76
2021/11/27 09:00:54;;;;;;;4.13;1.27;;;5.80;97.00;;;;;;4994275;28;20069;-77
2021/11/27 09:03:22;;;;;;;3.67;1.40;;;5.90;97.00;;;;;;4994405;28;20046;-76
2021/11/27 09:05:49;;;;;;;3.28;1.40;;;5.90;97.10;;;;;;4993717;28;20060;-77
2021/11/27 09:08:16;;;;;;;3.35;1.20;;;5.90;97.10;;;;;;4992260;28;20046;-75
2021/11/27 09:10:45;;;;;;;3.88;1.17;;;5.90;97.10;;;;;;4993193;28;20144;-77
2021/11/27 09:13:14;;;;;;;2.90;1.10;;;5.90;97.10;;;;;;4994620;28;20046;-76
2021/11/27 09:15:42;;;;;;;3.83;1.55;;;6.00;97.30;;;;;;4992804;28;20045;-77
2021/11/27 09:18:10;;;;;;;3.55;1.35;;;6.00;96.90;;;;;;4993494;28;20045;-76
2021/11/27 09:20:37;;;;;;;4.90;1.65;;;6.10;96.80;;;;;;4991708;28;20042;-77
2021/11/27 09:23:05;;;;;;;3.67;1.65;;;6.20;96.90;;;;;;4991496;28;20509;-74
2021/11/27 09:25:33;;;;;;;3.17;1.42;;;6.20;96.80;;;;;;4992837;28;20050;-76
2021/11/27 09:28:02;;;;;;;3.42;1.50;;;6.30;96.70;;;;;;4992391;28;20148;-77
2021/11/27 09:30:31;;;;;;;3.20;1.25;;;6.30;96.60;;;;;;4992238;28;20056;-74
2021/11/27 09:32:59;;;;;;;3.63;1.45;;;6.40;96.50;;;;;;4990113;28;20046;-77
2021/11/27 09:35:26;;;;;;;3.00;1.20;;;6.50;96.40;;;;;;4992061;28;20052;-80
2021/11/27 09:37:54;;;;;;;3.28;1.30;;;6.60;96.20;;;;;;4991357;28;20070;-81
2021/11/27 09:40:21;;;;;;;3.92;1.30;;;6.70;96.00;;;;;;4991236;28;20571;-77
2021/11/27 09:42:52;;;;;;;2.15;1.10;;;6.70;95.70;;;;;;4991998;28;20042;-79
2021/11/27 09:45:25;;;;;;;3.05;1.20;;;6.70;95.40;;;;;;4987027;28;20039;-80
2021/11/27 09:47:54;;;;;;;2.35;0.95;;;6.80;95.10;;;;;;4979383;28;20361;-80
2021/11/27 09:50:22;;;;;;;3.83;1.13;;;6.80;95.00;;;;;;4992507;28;20047;-80
2021/11/27 09:52:51;;;;;;;3.50;1.27;;;6.80;95.10;;;;;;4992309;28;20050;-78
2021/11/27 09:55:20;;;;;;;3.75;1.20;;;6.80;94.70;;;;;;4990382;28;21686;-78
2021/11/27 09:57:50;;;;;;;3.67;1.15;;;6.80;94.90;;;;;;4992121;28;20054;-78
2021/11/27 10:00:21;;;;;;;4.47;1.40;;;6.90;95.00;;;;;;4991668;28;20053;-77
2021/11/27 10:02:56;;;;;;;2.88;1.10;;;6.90;94.60;;;;;;4972831;28;20137;-76
2021/11/27 10:05:24;;;;;;;3.40;1.13;;;7.00;94.40;;;;;;4972414;28;20043;-77
2021/11/27 10:07:52;;;;;;;2.85;0.98;;;7.00;94.40;;;;;;4972970;28;20098;-78
2021/11/27 10:10:21;;;;;;;3.63;1.40;;;7.00;94.70;;;;;;4972419;28;20087;-76
2021/11/27 10:12:50;;;;;;;4.18;1.13;;;7.10;95.00;;;;;;4969340;28;20054;-76
2021/11/27 10:15:17;;;;;;;2.92;0.80;;;7.10;94.20;;;;;;4972322;28;20074;-78
2021/11/27 10:17:46;;;;;;;4.97;1.00;;;7.10;93.20;;;;;;4972543;28;20042;-77
2021/11/27 10:20:14;;;;;;;3.13;0.80;;;7.20;93.30;;;;;;4972601;28;20396;-77
2021/11/27 10:22:46;;;;;;;5.40;1.05;;;7.20;93.30;;;;;;4972624;28;20051;-81
2021/11/27 10:25:42;;;;;;;4.00;1.10;;;7.30;93.20;;;;;;4970758;28;20567;-80
2021/11/27 10:28:14;;;;;;;3.75;0.90;;;7.40;92.70;;;;;;4972448;28;20130;-78
2021/11/27 10:30:50;;;;;;;3.90;0.80;;;7.50;92.60;;;;;;4970648;28;20069;-81
2021/11/27 10:33:20;;;;;;;3.05;0.70;;;7.50;92.00;;;;;;4972830;28;20050;-79
2021/11/27 10:36:00;;;;;;;1.98;0.55;;;7.50;90.20;;;;;;4972134;28;20134;-81
2021/11/27 10:38:46;;;;;;;3.85;0.90;;;7.40;90.30;;;;;;4953203;29;20057;-79
2021/11/27 10:41:16;;;;;;;1.67;0.68;;;7.40;90.40;;;;;;4953098;29;20158;-79
2021/11/27 10:43:59;;;;;;;2.17;0.88;;;7.40;90.00;;;;;;4953329;29;20047;-80
2021/11/27 10:46:27;;;;;;;2.72;0.70;;;7.30;90.30;;;;;;4966764;28;20138;-80
2021/11/27 10:48:56;;;;;;;4.20;0.70;;;7.30;90.10;;;;;;4972302;28;20046;-79
2021/11/27 10:51:24;;;;;;;3.92;0.80;;;7.30;90.10;;;;;;4973075;28;20054;-83
2021/11/27 10:53:56;;;;;;;3.13;0.90;;;7.30;90.20;;;;;;4955394;29;20134;-83
2021/11/27 10:56:41;;;;;;;3.30;0.75;;;7.20;90.30;;;;;;4964283;28;20055;-79
2021/11/27 10:59:09;;;;;;;2.75;0.88;;;7.20;90.20;;;;;;4972941;28;20047;-79
2021/11/27 11:02:05;;;;;;;3.33;1.00;;;7.30;90.40;;;;;;4974499;28;20063;-76
2021/11/27 11:04:34;;;;;;;3.38;0.85;;;7.30;90.60;;;;;;4991466;28;20568;-79
2021/11/27 11:07:19;;;;;;;3.20;0.80;;;7.20;90.70;;;;;;4993070;28;20047;-78
2021/11/27 11:10:25;;;;;;;2.05;0.80;;;7.10;90.80;;;;;;4998874;28;20082;-79
2021/11/27 11:12:55;;;;;;;3.00;0.60;;;7.10;91.10;;;;;;4978371;28;20042;-78
2021/11/27 11:15:26;;;;;;;2.35;0.70;;;7.10;91.20;;;;;;4992867;28;20050;-78
2021/11/27 11:18:10;;;;;;;3.10;0.75;;;7.10;91.30;;;;;;4991954;28;20051;-80
2021/11/27 11:20:44;;;;;;;2.47;0.60;;;7.00;91.30;;;;;;4992064;28;20141;-78
2021/11/27 11:23:17;;;;;;;2.25;0.77;;;7.00;91.40;;;;;;4992050;28;20054;-78
2021/11/27 11:26:07;;;;;;;2.42;0.65;;;7.00;91.80;;;;;;4993844;28;20575;-79
2021/11/27 11:28:39;;;;;;;1.88;0.50;;;6.90;92.30;;;;;;4995194;28;20065;-77
2021/11/27 11:31:09;;;;;;;1.75;0.50;;;6.90;92.90;;;;;;4995337;28;20129;-81
2021/11/27 11:33:41;;;;;;;2.05;0.60;;;6.80;94.20;;;;;;4995052;28;20454;-75
2021/11/27 11:36:12;;;;;;;2.17;0.60;;;6.70;94.80;;;;;;4995149;28;20050;-77
2021/11/27 11:38:42;;;;;;;1.73;0.60;;;6.60;95.70;;;;;;4994904;28;20141;-79
2021/11/27 11:41:09;;;;;;;1.45;0.47;;;6.50;96.40;;;;;;4995078;28;20064;-79
2021/11/27 11:43:37;;;;;;;1.58;0.50;;;6.40;97.00;;;;;;4995064;28;20129;-79
2021/11/27 11:46:04;;;;;;;1.08;0.30;;;6.40;96.60;;;;;;4995294;28;20140;-79
2021/11/27 11:48:32;;;;;;;1.20;0.32;;;6.30;96.50;;;;;;4994459;28;20072;-77
2021/11/27 11:51:11;;;;;;;1.15;0.30;;;6.30;96.20;;;;;;4994929;28;20133;-76
2021/11/27 11:53:45;;;;;;;0.88;0.35;;;6.30;96.20;;;;;;4995041;28;20054;-76
2021/11/27 11:56:12;;;;;;;1.67;0.50;;;6.30;96.00;;;;;;4994759;28;20127;-76
2021/11/27 11:58:42;;;;;;;2.70;0.47;;;6.30;96.10;;;;;;4991322;28;20137;-79
2021/11/27 12:01:17;;;;;;;1.23;0.40;;;6.30;95.90;;;;;;4994313;28;20054;-78
2021/11/27 12:03:46;;;;;;;;;;;6.40;95.80;;;;;;4995108;28;20133;-81
2021/11/27 12:06:16;;;;;;;1.30;0.50;;;6.30;95.60;;;;;;4994976;28;20309;-80
2021/11/27 12:09:14;;;;;;;2.13;0.57;;;6.30;95.80;;;;;;4994657;28;20123;-77
2021/11/27 12:12:20;;;;;;;1.77;0.70;;;6.30;95.60;;;;;;4994393;28;20046;-79
2021/11/27 12:15:08;;;;;;;1.08;0.40;;;6.40;95.50;;;;;;4994605;28;20050;-79
2021/11/27 12:18:10;;;;;;;1.63;0.45;;;6.50;95.10;;;;;;4994478;28;20060;-80
2021/11/27 12:20:47;;;;;;;1.80;0.47;;;6.50;95.10;;;;;;4994570;28;20053;-77
2021/11/27 12:23:38;;;;;;;1.35;0.43;;;6.40;95.40;;;;;;4994364;28;20050;-79
2021/11/27 12:26:16;;;;;;;1.20;0.30;;;6.40;95.60;;;;;;4994223;28;20069;-79
2021/11/27 12:29:09;;;;;;;1.10;0.38;;;6.40;96.00;;;;;;4994374;28;20046;-79
2021/11/27 12:31:54;;;;;;;1.75;0.40;;;6.30;95.80;;;;;;4992813;28;20064;-77
2021/11/27 12:34:40;;;;;;;1.35;0.50;;;6.30;95.90;;;;;;4994166;28;20053;-77
2021/11/27 12:37:27;;;;;;;2.53;0.60;;;6.30;96.20;;;;;;4993359;28;20567;-77
2021/11/27 12:39:55;;;;;;;1.45;0.50;;;6.40;96.40;;;;;;4993916;28;20566;-77
2021/11/27 12:42:36;;;;;;;0.82;0.40;;;6.50;96.60;;;;;;4994235;28;20047;-76
2021/11/27 12:45:07;;;;;;;1.30;0.47;;;6.90;96.60;;;;;;4994048;28;20124;-78
2021/11/27 12:47:37;;;;;;;1.50;0.50;;;7.30;96.30;;;;;;4994054;28;20393;-79
2021/11/27 12:50:19;;;;;;;1.95;0.60;;;7.60;95.50;;;;;;4994267;28;20077;-76
2021/11/27 12:53:09;;;;;;;4.75;1.63;;;8.00;94.10;;;;;;4994275;28;20547;-78
2021/11/27 12:55:42;;;;;;;1.90;0.60;;;8.10;92.70;;;;;;4993863;28;20141;-78
2021/11/27 12:58:43;;;;;;;1.17;0.63;;;8.40;92.70;;;;;;4993670;28;20664;-78
2021/11/27 13:01:11;;;;;;;1.73;0.60;;;8.40;91.20;;;;;;4993489;28;20105;-76
2021/11/27 13:03:38;;;;;;;1.50;0.60;;;8.20;90.50;;;;;;4993606;28;20050;-78
2021/11/27 13:06:07;;;;;;;2.58;0.70;;;8.00;90.80;;;;;;4993395;28;20101;-78
2021/11/27 13:08:36;;;;;;;1.73;0.70;;;7.80;91.20;;;;;;4993249;28;20047;-78
2021/11/27 13:11:15;;;;;;;2.88;0.90;;;7.70;91.60;;;;;;4993685;28;20393;-79
2021/11/27 13:13:46;;;;;;;1.55;0.60;;;7.50;92.20;;;;;;4993507;28;20109;-77
2021/11/27 13:16:25;;;;;;;1.65;0.70;;;7.30;93.00;;;;;;4993158;28;20133;-76
2021/11/27 13:18:55;;;;;;;1.13;0.40;;;7.00;95.80;;;;;;4993385;28;20038;-78
2021/11/27 13:21:29;;;;;;;1.60;0.40;;;6.70;97.10;;;;;;4993167;28;20055;-75
2021/11/27 13:23:58;;;;;;;1.95;0.60;;;6.40;97.70;;;;;;4993441;28;20046;-79
2021/11/27 13:26:28;;;;;;;1.15;0.40;;;6.30;98.90;;;;;;4993105;28;20492;-81
2021/11/27 13:28:59;;;;;;;1.40;0.47;;;7.30;99.40;;;;;;4993257;28;20165;-79
2021/11/27 13:31:35;;;;;;;6.43;1.88;;;8.10;96.60;;;;;;4990083;28;20104;-78
2021/11/27 13:34:06;;;;;;;4.63;1.50;;;8.30;95.60;;;;;;4989598;28;20050;-78
2021/11/27 13:36:42;;;;;;;1.40;0.50;;;8.70;96.70;;;;;;4989161;28;20121;-79
2021/11/27 13:39:23;;;;;;;2.70;0.60;;;11.00;99.90;;;;;;4985531;28;20125;-79
2021/11/27 13:42:09;;;;;;;0.80;0.40;;;11.70;85.30;;;;;;4989166;28;20137;-78
2021/11/27 13:44:45;;;;;;;1.48;0.60;;;11.30;81.80;;;;;;4985861;28;20080;-78
2021/11/27 13:47:12;;;;;;;0.60;0.20;;;10.50;82.10;;;;;;4988232;28;20136;-80
2021/11/27 13:49:43;;;;;;;1.15;0.38;;;9.60;86.00;;;;;;4987901;28;20062;-82
2021/11/27 13:52:16;;;;;;;2.78;0.60;;;8.80;89.70;;;;;;4993321;28;20054;-82
2021/11/27 13:54:50;;;;;;;1.63;0.32;;;8.20;91.70;;;;;;4992164;28;20054;-85
2021/11/27 13:57:18;;;;;;;1.17;0.40;;;7.60;93.10;;;;;;4990501;28;20084;-81
2021/11/27 13:59:46;;;;;;;0.98;0.30;;;7.20;94.40;;;;;;4990565;28;20141;-86
2021/11/27 14:02:15;;;;;;;0.90;0.32;;;6.90;95.00;;;;;;4991413;28;20058;-86
2021/11/27 14:04:46;;;;;;;0.50;0.30;;;6.50;96.00;;;;;;4993315;28;20042;-88
2021/11/27 14:07:17;;;;;;;4.25;1.65;;;6.30;96.50;;;;;;4996621;28;20115;-85
2021/11/27 14:09:55;;;;;;;4.47;2.17;;;6.10;97.40;;;;;;4976277;28;20140;-85
2021/11/27 14:12:41;;;;;;;1.90;0.70;;;5.80;98.00;;;;;;4995189;28;20607;-85
2021/11/27 14:15:15;;;;;;;1.45;0.50;;;5.70;98.50;;;;;;4994538;28;20121;-86
2021/11/27 14:18:06;;;;;;;0.88;0.30;;;5.50;98.70;;;;;;4991224;28;20085;-87
2021/11/27 14:20:36;;;;;;;1.13;0.40;;;5.40;98.80;;;;;;4990421;28;20055;-81
2021/11/27 14:23:07;;;;;;;1.70;0.70;;;5.30;99.00;;;;;;4989300;28;20085;-82
2021/11/27 14:25:40;;;;;;;0.75;0.40;;;5.30;99.10;;;;;;4990416;28;20193;-78
2021/11/27 14:28:10;;;;;;;1.25;0.50;;;5.20;99.40;;;;;;4990858;28;20500;-77
2021/11/27 14:30:41;;;;;;;1.52;0.52;;;5.20;99.60;;;;;;4987332;28;20134;-80
2021/11/27 14:33:26;;;;;;;1.73;0.68;;;5.20;99.60;;;;;;4988863;28;20077;-78
2021/11/27 14:35:58;;;;;;;1.48;0.60;;;5.10;99.90;;;;;;4972465;28;20038;-76
2021/11/27 14:38:45;;;;;;;1.13;0.52;;;5.10;99.90;;;;;;4986957;28;20050;-80
2021/11/27 14:41:16;;;;;;;2.55;0.80;;;5.10;99.90;;;;;;4981787;28;20042;-83
2021/11/27 14:44:08;;;;;;;2.83;0.80;;;5.10;99.90;;;;;;4988346;28;20145;-78
2021/11/27 14:46:43;;;;;;;2.28;0.80;;;5.10;99.90;;;;;;4988827;28;20093;-79
2021/11/27 14:49:32;;;;;;;2.70;1.00;;;5.10;99.90;;;;;;4990334;28;20496;-77
2021/11/27 14:52:05;;;;;;;2.50;0.90;;;5.10;99.90;;;;;;4978752;28;20539;-83
2021/11/27 14:54:35;;;;;;;2.00;0.85;;;5.10;99.90;;;;;;4990921;28;20085;-81
2021/11/27 14:57:07;;;;;;;2.53;1.20;;;5.00;99.90;;;;;;4990597;28;20100;-81
2021/11/27 14:59:49;;;;;;;2.50;1.00;;;5.00;99.90;;;;;;4994592;28;20073;-80
2021/11/27 15:02:18;;;;;;;3.30;1.10;;;4.90;99.90;;;;;;5006803;28;20058;-79
2021/11/27 15:04:47;;;;;;;2.78;1.10;;;4.90;99.90;;;;;;4992783;28;20049;-79
2021/11/27 15:07:16;;;;;;;2.08;0.80;;;4.80;99.90;;;;;;4998442;28;20053;-80
2021/11/27 15:09:45;;;;;;;1.77;0.80;;;4.70;99.90;;;;;;4990933;28;20050;-78
2021/11/27 15:12:13;;;;;;;1.92;0.80;;;4.80;99.90;;;;;;4972889;28;20088;-79
2021/11/27 15:14:42;;;;;;;2.95;1.00;;;5.10;99.90;;;;;;4992563;28;20078;-78
2021/11/27 15:17:12;;;;;;;1.35;0.52;;;5.40;99.90;;;;;;4991811;28;20052;-82
2021/11/27 15:19:40;;;;;;;1.63;0.65;;;5.50;99.90;;;;;;4976655;28;20050;-85
2021/11/27 15:22:13;;;;;;;1.52;0.70;;;5.40;99.90;;;;;;4994636;28;20078;-86
2021/11/27 15:24:41;;;;;;;1.55;0.52;;;5.40;99.90;;;;;;4996466;28;20125;-85
2021/11/27 15:27:10;;;;;;;2.28;0.80;;;5.30;99.90;;;;;;4994197;28;20050;-80
2021/11/27 15:29:37;;;;;;;2.55;0.98;;;5.20;99.90;;;;;;4992524;28;20046;-82
2021/11/27 15:32:06;;;;;;;2.75;0.93;;;5.20;99.90;;;;;;4995451;28;20575;-82
2021/11/27 15:34:34;;;;;;;2.22;0.80;;;5.20;99.90;;;;;;4976832;28;20111;-84
2021/11/27 15:37:03;;;;;;;1.73;0.80;;;5.20;99.90;;;;;;4993010;28;20050;-82
2021/11/27 15:39:32;;;;;;;1.95;0.60;;;5.20;99.90;;;;;;4993179;28;20578;-80
2021/11/27 15:42:02;;;;;;;1.58;0.63;;;5.20;99.90;;;;;;4991292;28;20114;-78
2021/11/27 15:44:30;;;;;;;1.92;0.63;;;5.10;99.90;;;;;;4991168;28;20475;-79
2021/11/27 15:47:00;;;;;;;2.58;0.90;;;5.10;99.90;;;;;;4992276;28;20057;-82
2021/11/27 15:49:27;;;;;;;2.60;0.95;;;5.10;99.90;;;;;;4993317;28;20117;-82
2021/11/27 15:51:55;;;;;;;3.40;0.98;;;5.10;99.90;;;;;;4991826;28;20101;-83
2021/11/27 15:54:23;;;;;;;2.65;1.00;;;5.10;99.90;;;;;;4991309;28;20108;-81
2021/11/27 15:56:53;;;;;;;2.58;1.00;;;5.10;99.90;;;;;;4991851;28;20046;-81
2021/11/27 15:59:20;;;;;;;3.58;1.33;;;5.10;99.90;;;;;;4991782;28;20050;-81
2021/11/27 16:01:48;;;;;;;3.40;1.58;;;5.10;99.90;;;;;;4990703;28;20614;-80
2021/11/27 16:04:17;;;;;;;4.15;1.50;;;5.10;99.90;;;;;;4990440;28;20509;-81
2021/11/27 16:06:45;;;;;;;4.35;1.80;;;5.10;99.90;;;;;;4990946;28;20141;-79
2021/11/27 16:09:13;;;;;;;3.30;1.60;;;5.10;99.90;;;;;;4990726;28;20058;-81
2021/11/27 16:11:40;;;;;;;4.53;1.70;;;5.10;99.90;;;;;;4972520;28;20082;-80
2021/11/27 16:14:10;;;;;;;3.78;1.60;;;5.10;99.90;;;;;;4990630;28;20066;-79
2021/11/27 16:16:38;;;;;;;3.50;1.70;;;5.00;99.90;;;;;;4974215;28;20422;-81
2021/11/27 16:19:06;;;;;;;3.30;1.52;;;5.10;99.90;;;;;;4990932;28;20070;-81
2021/11/27 16:21:34;;;;;;;3.50;1.70;;;5.10;99.90;;;;;;4990555;28;20408;-81
2021/11/27 16:24:02;;;;;;;3.42;1.30;;;5.00;99.90;;;;;;4991559;28;20050;-82
2021/11/27 16:26:30;;;;;;;4.40;1.80;;;5.00;99.90;;;;;;4990942;28;20525;-80
2021/11/27 16:28:57;;;;;;;3.80;1.50;;;5.00;99.90;;;;;;4991763;28;20065;-79
2021/11/27 16:31:26;;;;;;;3.45;1.30;;;5.00;99.90;;;;;;4991194;28;20054;-81
2021/11/27 16:33:54;;;;;;;2.58;1.20;;;5.00;99.90;;;;;;4991650;28;20136;-80
2021/11/27 16:36:21;;;;;;;3.78;1.65;;;5.00;99.90;;;;;;4992114;28;20106;-80
2021/11/27 16:38:49;;;;;;;3.38;1.10;;;5.00;99.90;;;;;;4991816;28;20133;-79
2021/11/27 16:41:19;;;;;;;3.10;1.08;;;5.00;99.90;;;;;;4990812;28;20050;-80
2021/11/27 16:43:46;;;;;;;2.70;1.00;;;5.00;99.90;;;;;;4981480;28;20149;-80
2021/11/27 16:46:17;;;;;;;4.38;1.60;;;5.00;99.90;;;;;;4990391;28;20385;-80
2021/11/27 16:48:47;;;;;;;4.63;1.30;;;5.00;99.90;;;;;;4990459;28;20046;-80
2021/11/27 16:51:15;;;;;;;2.83;0.93;;;4.90;99.90;;;;;;4991225;28;20145;-81
2021/11/27 16:53:43;;;;;;;3.60;1.23;;;4.90;99.90;;;;;;4989698;28;20133;-79
2021/11/27 16:56:11;;;;;;;3.28;1.23;;;4.90;99.90;;;;;;4990179;28;20136;-80
2021/11/27 16:58:38;;;;;;;3.95;1.20;;;4.90;99.90;;;;;;4990108;28;20084;-81
2021/11/27 17:01:05;;;;;;;3.63;1.30;;;5.00;99.90;;;;;;4956823;28;20076;-80
2021/11/27 17:03:32;;;;;;;3.50;1.42;;;5.00;99.90;;;;;;4989554;28;20060;-77
2021/11/27 17:06:03;;;;;;;3.58;1.30;;;4.90;99.90;;;;;;4990046;28;20102;-79
2021/11/27 17:08:30;;;;;;;3.80;1.65;;;4.90;99.90;;;;;;4989535;28;20084;-79
2021/11/27 17:11:00;;;;;;;3.90;1.75;;;4.90;99.90;;;;;;4989679;28;20046;-78
2021/11/27 17:13:27;;;;;;;4.30;1.75;;;4.90;99.70;;;;;;4989597;28;20046;-77
2021/11/27 17:15:54;;;;;;;5.00;1.70;;;5.00;99.60;;;;;;4966134;28;20050;-77
2021/11/27 17:18:22;;;;;;;6.05;2.03;;;5.00;99.50;;;;;;4989143;28;20137;-77
2021/11/27 17:20:50;;;;;;;4.95;1.85;;;5.00;99.40;;;;;;4989413;28;20142;-79
2021/11/27 17:23:19;;;;;;;4.13;1.90;;;5.00;99.30;;;;;;4989050;28;20163;-78
2021/11/27 17:25:46;;;;;;;4.75;2.20;;;5.00;99.10;;;;;;4988989;28;20137;-77
2021/11/27 17:28:13;;;;;;;3.88;1.65;;;5.00;99.20;;;;;;4989213;28;20504;-79
2021/11/27 17:30:41;;;;;;;3.92;1.80;;;5.00;99.20;;;;;;4989693;28;20061;-79
2021/11/27 17:33:08;;;;;;;4.30;1.70;;;5.10;99.10;;;;;;4988607;28;20213;-77
2021/11/27 17:35:35;;;;;;;6.05;2.22;;;5.10;98.90;;;;;;4989286;28;20056;-77
2021/11/27 17:38:04;;;;;;;5.00;1.83;;;5.10;98.80;;;;;;4988676;28;20054;-78
2021/11/27 17:40:32;;;;;;;4.22;1.67;;;5.10;98.80;;;;;;4989708;28;20047;-84
2021/11/27 17:43:00;;;;;;;4.43;2.05;;;5.20;99.00;;;;;;4989626;28;20153;-78
2021/11/27 17:45:27;;;;;;;5.45;2.20;;;5.20;98.80;;;;;;4988930;28;20137;-79
2021/11/27 17:47:54;;;;;;;5.22;2.05;;;5.20;98.70;;;;;;4989378;28;20058;-79
2021/11/27 17:50:21;;;;;;;5.18;2.20;;;5.20;98.70;;;;;;4989521;28;20395;-80
2021/11/27 17:52:48;;;;;;;4.43;2.00;;;5.20;98.70;;;;;;4989519;28;20057;-79
2021/11/27 17:55:16;;;;;;;5.53;2.22;;;5.20;98.80;;;;;;4988389;28;20484;-77
2021/11/27 17:57:44;;;;;;;4.32;2.20;;;5.20;98.90;;;;;;4989126;28;20048;-79
2021/11/27 18:00:13;;;;;;;4.90;2.03;;;5.20;99.10;;;;;;4971576;28;20089;-78
2021/11/27 18:02:41;;;;;;;3.85;1.92;;;5.20;99.20;;;;;;4988560;28;20058;-80
2021/11/27 18:05:09;;;;;;;3.65;1.80;;;5.10;99.20;;;;;;4989560;28;20133;-80
2021/11/27 18:07:38;;;;;;;4.68;2.28;;;5.10;99.10;;;;;;4988996;28;20110;-80
2021/11/27 18:10:08;;;;;;;7.28;2.00;;;5.10;99.20;;;;;;4988536;28;20430;-77
2021/11/27 18:12:36;;;;;;;4.72;2.67;;;5.00;99.00;;;;;;4987385;28;20038;-77
2021/11/27 18:15:07;;;;;;;6.53;3.40;;;5.00;99.00;;;;;;4988914;28;20042;-77
2021/11/27 18:17:35;;;;;;;6.40;2.47;;;5.00;99.20;;;;;;4988912;28;20058;-78
2021/11/27 18:20:03;;;;;;;5.60;2.53;;;5.00;99.40;;;;;;4987706;28;20145;-77
2021/11/27 18:22:30;;;;;;;5.22;2.70;;;4.90;99.50;;;;;;4990394;28;20231;-82
2021/11/27 18:25:08;;;;;;;6.30;2.88;;;4.90;99.60;;;;;;4978919;28;20070;-84
2021/11/27 18:27:38;;;;;;;4.15;2.20;;;4.80;99.60;;;;;;4992556;28;20058;-85
2021/11/27 18:30:10;;;;;;;4.32;1.80;;;4.80;99.60;;;;;;4971085;28;20045;-85
2021/11/27 18:32:37;;;;;;;4.53;1.90;;;4.70;99.60;;;;;;4983454;28;20494;-87
2021/11/27 18:35:07;;;;;;;3.58;1.70;;;4.70;99.60;;;;;;4994379;28;20050;-85
2021/11/27 18:37:34;;;;;;;3.65;1.60;;;4.60;99.60;;;;;;4995883;28;20140;-84
2021/11/27 18:40:05;;;;;;;4.03;1.70;;;4.60;99.60;;;;;;4996451;28;20129;-83
2021/11/27 18:42:32;;;;;;;3.47;1.40;;;4.60;99.60;;;;;;4993921;28;20050;-79
2021/11/27 18:44:59;;;;;;;4.65;1.33;;;4.50;99.40;;;;;;4995066;28;20049;-79
2021/11/27 18:47:28;;;;;;;3.95;1.50;;;4.50;99.30;;;;;;4994982;28;20133;-79
2021/11/27 18:49:55;;;;;;;3.85;1.52;;;4.50;99.40;;;;;;4992901;28;20054;-79
2021/11/27 18:52:22;;;;;;;3.60;1.70;;;4.40;99.50;;;;;;4992212;28;20046;-79
2021/11/27 18:54:50;;;;;;;3.47;1.70;;;4.40;99.50;;;;;;4992796;28;20054;-79
2021/11/27 18:57:17;;;;;;;4.95;2.10;;;4.30;99.40;;;;;;4992471;28;20054;-80
2021/11/27 18:59:44;;;;;;;4.68;2.15;;;4.20;99.60;;;;;;4992103;28;20579;-78
2021/11/27 19:02:11;;;;;;;6.60;2.05;;;4.10;99.60;;;;;;4973430;28;20085;-79
2021/11/27 19:04:40;;;;;;;5.43;2.58;;;4.10;99.70;;;;;;4991633;28;20392;-81
2021/11/27 19:07:08;;;;;;;4.68;1.92;;;4.00;99.80;;;;;;4992148;28;20502;-80
2021/11/27 19:09:36;;;;;;;4.28;2.00;;;4.00;99.80;;;;;;4991289;28;20054;-80
2021/11/27 19:12:06;;;;;;;4.18;1.88;;;3.90;99.90;;;;;;4992628;28;20145;-78
2021/11/27 19:14:34;;;;;;;4.88;2.28;;;3.90;99.90;;;;;;4985760;28;20565;-79